Nederlandse vliegveldverwachtingen (TAF)

Luchtvaartmeteorologische informatie voor operationeel gebruik en vluchtvoorbereiding is beschikbaar op www.luchtvaartmeteo.nl.

ZCZC
FC290900 EHWO RRE WOENSDRECHT/WOENSDRECHT   NLD   19 m.
TAF EHWO 290902Z 2910/2922 25015G25KT 9999 SCT020 BKN030
    TEMPO 2910/2911 SCT018CB
    BECMG 2915/2917 23012KT=

ZCZC
FT291100 EHAM     AMSTERDAM/SCHIPHOL   NLD   -3 m.
TAF EHAM 291110Z 2912/3018 28018G28KT 9999 SCT025
    PROB30 TEMPO 2912/2914 7000 -SHRA FEW022CB BKN025
    BECMG 2916/2919 24014KT
    BECMG 3003/3006 BKN008
    BECMG 3009/3012 21012KT SCT025
    BECMG 3012/3015 18012KT
    BECMG 3015/3018 BKN012
    PROB40 TEMPO 3016/3018 3000 DZ BKN008=

ZCZC
FT291100 EHBK     MAASTRICHT/MAASTRICHT-AACHEN   NLD   114 m.
TAF EHBK 291110Z 2912/3018 25014KT 9999 BKN015
    PROB30 TEMPO 2912/2915 26016G26KT 7000 -SHRA FEW020CB
    BECMG 2916/2918 22010KT
    BECMG 3009/3012 19011KT
    BECMG 3016/3018 22015KT 4000 DZ BKN012=

ZCZC
FT291100 EHGG     GRONINGEN/EELDE   NLD   5 m.
TAF EHGG 291109Z 2912/3018 27015G25KT 9999 SCT025
    TEMPO 2912/2917 6000 -SHRA FEW020CB
    PROB30 TEMPO 2912/2915 27020G30KT 3000 SHRAGS SCT020CB
    BECMG 2920/2923 21012KT
    BECMG 2923/3002 24015G25KT
    TEMPO 3000/3010 4000 RADZ BKN008
    BECMG 3013/3016 20012KT
    BECMG 3017/3018 6000 DZ BKN012=

ZCZC
FT291100 EHLE     LELYSTAD/LELYSTAD   NLD   -3 m.
TAF EHLE 291110Z 2912/3018 28018G28KT 9999 SCT025
    PROB30 TEMPO 2912/2914 7000 -SHRA FEW022CB BKN025
    BECMG 2916/2919 24014KT
    BECMG 3003/3006 BKN008
    BECMG 3009/3012 21012KT SCT025
    BECMG 3012/3015 18012KT
    BECMG 3015/3018 BKN012
    PROB30 TEMPO 3016/3018 3000 DZ BKN008=

ZCZC
FT291100 EHRD     ROTTERDAM/THE HAGUE AIRPORT   NLD   -5 m.
TAF EHRD 291110Z 2912/3018 28018G28KT 9999 SCT025
    BECMG 2916/2919 24014KT
    BECMG 3002/3005 BKN008
    BECMG 3007/3010 21012KT SCT025
    BECMG 3012/3015 18012KT
    BECMG 3013/3016 BKN012
    TEMPO 3015/3018 3000 DZ BKN005=

ZCZC
FT291100 EHEH     EINDHOVEN/EINDHOVEN   NLD   22 m.
TAF EHEH 291141Z 2912/3018 25015KT 9999 SCT020 BKN030
    TEMPO 2912/2913 25017G27KT SCT018CB
    BECMG 3014/3016 SCT015 BKN020
    TEMPO 3015/3018 4000 RADZ SCT008 BKN015=

ZCZC
FC291300 EHGR RRA GILZE-RIJEN/GILZE-RIJEN   NLD   14 m.
TAF EHGR 291305Z 2914/3002 27017KT 9999 SCT025
    BECMG 2915/2917 24010KT=

ZCZC
FC291300 EHKD RRB DE KOOY/DE KOOY   NLD   1 m.
TAF EHKD 291304Z 2914/3002 24015KT 9999 SCT020 BKN030
    TEMPO 2914/2915 SCT018CB
    TEMPO 2921/3002 25020G30KT=

ZCZC
FC291300 EHVK RRC VOLKEL/VOLKEL   NLD   21 m.
TAF EHVK 291305Z 2914/3002 27015KT 9999 SCT025=

ZCZC
FC291300 EHLW RRD LEEUWARDEN/LEEUWARDEN   NLD   1 m.
TAF EHLW 291304Z 2914/3002 27017KT 9999 SCT020 BKN030
    TEMPO 2914/2916 SCT018CB
    TEMPO 2921/3002 25020G30KT=

29/01/2020 15.00 uur LT